METAR Data
IDs: Format: Raw Decoded Include TAF

Data at: 1847 UTC 16 Oct 2021

KPVW 161835Z AUTO 21009KT 10SM CLR 18/M03 A3042 RMK AO2 T01761027
KPVW 161815Z AUTO 19004KT 10SM CLR 17/M02 A3043 RMK AO2 T01711025
KPVW 161755Z AUTO 20005KT 10SM CLR 17/M02 A3044 RMK AO2 T01651016 10169 20000
KPVW 161735Z AUTO 22008KT 10SM CLR 16/M01 A3045 RMK AO2 T01611013
KPVW 161715Z AUTO 22004KT 10SM CLR 15/M01 A3045 RMK AO2 T01521007
KPVW 161655Z AUTO 24005KT 10SM CLR 15/M01 A3046 RMK AO2 T01491006
KPVW 161635Z AUTO 22007KT 10SM CLR 14/00 A3046 RMK AO2 T01441005
KPVW 161615Z AUTO 23005KT 10SM CLR 14/M01 A3045 RMK AO2 T01391008
KPVW 161555Z AUTO 22006KT 10SM CLR 14/M01 A3045 RMK AO2 T01371008
KPVW 161535Z AUTO 24006KT 10SM CLR 13/00 A3045 RMK AO2 T01291003
KPVW 161515Z AUTO 22006KT 10SM CLR 12/00 A3045 RMK AO2 T01160000
KPVW 161455Z AUTO 21003KT 10SM CLR 11/00 A3044 RMK AO2 T01071005
KPVW 161435Z AUTO 00000KT 10SM CLR 08/01 A3044 RMK AO2 T00840006
KPVW 161415Z AUTO 00000KT 10SM CLR 06/01 A3044 RMK AO2 T00550006
KPVW 161355Z AUTO 00000KT 10SM CLR 03/00 A3044 RMK AO2 T00281004
KPVW 161335Z AUTO 00000KT 10SM CLR 01/M02 A3043 RMK AO2 T00141019
KPVW 161315Z AUTO 26003KT 10SM CLR 01/M03 A3043 RMK AO2 T00051026 TSNO
KPVW 161255Z AUTO 27004KT 10SM CLR 00/M02 A3043 RMK AO2 T00021024
KPVW 161235Z AUTO 00000KT 10SM CLR 00/M03 A3042 RMK AO2 T00001026
KPVW 161215Z AUTO 29003KT 10SM CLR 00/M03 A3042 RMK AO2 T00031026
KPVW 161155Z AUTO 00000KT 10SM CLR 01/M02 A3041 RMK AO2 T00101024 10033 20002
KPVW 161135Z AUTO 00000KT 10SM CLR 01/M02 A3041 RMK AO2 T00101025
KPVW 161115Z AUTO 00000KT 10SM CLR 02/M02 A3041 RMK AO2 T00181023
KPVW 161055Z AUTO 00000KT 10SM CLR 01/M02 A3040 RMK AO2 T00081025
KPVW 161035Z AUTO 00000KT 10SM CLR 02/M02 A3040 RMK AO2 T00151022 TSNO
KPVW 161015Z AUTO 00000KT 10SM CLR 01/M02 A3039 RMK AO2 T00131020
KPVW 160955Z AUTO 00000KT 10SM CLR 02/M02 A3039 RMK AO2 T00161020
KPVW 160935Z AUTO 00000KT 10SM CLR 02/M02 A3039 RMK AO2 T00221020
KPVW 160915Z AUTO 00000KT 10SM CLR 02/M02 A3038 RMK AO2 T00231019
KPVW 160855Z AUTO 00000KT 10SM CLR 02/M02 A3039 RMK AO2 T00231019 TSNO
KPVW 160835Z AUTO 00000KT 10SM CLR 03/M02 A3039 RMK AO2 T00251017
KPVW 160815Z AUTO 00000KT 10SM CLR 02/M02 A3039 RMK AO2 T00241020
KPVW 160755Z AUTO 00000KT 10SM CLR 02/M02 A3039 RMK AO2 T00221020
KPVW 160735Z AUTO 00000KT 10SM CLR 03/M02 A3039 RMK AO2 T00271018
KPVW 160715Z AUTO 00000KT 10SM CLR 03/M02 A3039 RMK AO2 T00251018
KPVW 160655Z AUTO 00000KT 10SM CLR 02/M02 A3038 RMK AO2 T00211019
KPVW 160635Z AUTO 00000KT 10SM CLR 02/M02 A3039 RMK AO2 T00201016
KPVW 160615Z AUTO 25003KT 10SM CLR 03/M01 A3038 RMK AO2 T00321015 TSNO
KPVW 160555Z AUTO 00000KT 10SM CLR 04/M02 A3038 RMK AO2 T00351016 10138 20035 401680035 TSNO
KPVW 160535Z AUTO 00000KT 10SM CLR 05/M01 A3038 RMK AO2 T00491013 TSNO
KPVW 160515Z AUTO 00000KT 10SM CLR 07/M01 A3038 RMK AO2 T00701015 TSNO
KPVW 160455Z AUTO 00000KT 10SM CLR 06/M01 A3038 RMK AO2 T00591014 TSNO
KPVW 160435Z AUTO 00000KT 10SM CLR 06/M01 A3037 RMK AO2 T00621013 TSNO
KPVW 160415Z AUTO 00000KT 10SM CLR 08/M01 A3037 RMK AO2 T00761014 TSNO
KPVW 160355Z AUTO 00000KT 10SM CLR 07/M01 A3036 RMK AO2 T00671014 TSNO
KPVW 160335Z AUTO 00000KT 5SM HZ CLR 07/M01 A3036 RMK AO2 T00741015 TSNO
KPVW 160315Z AUTO 06003KT 7SM CLR 08/M01 A3035 RMK AO2 T00791012 TSNO
KPVW 160255Z AUTO 07004KT 7SM CLR 06/M01 A3034 RMK AO2 T00591014 TSNO
KPVW 160235Z AUTO 07004KT 10SM CLR 09/M01 A3034 RMK AO2 T00891012 TSNO
KPVW 160215Z AUTO 07003KT 10SM CLR 08/M01 A3034 RMK AO2 T00841011 TSNO
KPVW 160155Z AUTO 07005KT 10SM CLR 09/M01 A3033 RMK AO2 T00911013 TSNO
KPVW 160135Z AUTO 06005KT 10SM CLR 09/M01 A3032 RMK AO2 T00911012
KPVW 160115Z AUTO 05005KT 10SM CLR 10/M01 A3032 RMK AO2 T00991013 TSNO
KPVW 160055Z AUTO 05006KT 10SM CLR 11/M01 A3031 RMK AO2 T01081011
KPVW 160035Z AUTO 05008KT 10SM CLR 11/M01 A3031 RMK AO2 T01121011
KPVW 160015Z AUTO 05008KT 10SM CLR 13/M01 A3030 RMK AO2 T01311013 TSNO
KPVW 152355Z AUTO 04008KT 10SM CLR 14/M01 A3029 RMK AO2 T01391015 10168 20139
KPVW 152335Z AUTO 03009G16KT 10SM CLR 15/M01 A3029 RMK AO2 T01461015
KPVW 152315Z AUTO 03011G15KT 10SM CLR 15/M01 A3028 RMK AO2 T01521015
KPVW 152255Z AUTO 02008KT 10SM CLR 16/M02 A3027 RMK AO2 T01561016 TSNO
KPVW 152235Z AUTO 04010G15KT 7SM CLR 16/M01 A3027 RMK AO2 T01581015
KPVW 152215Z AUTO 02013G18KT 10SM CLR 16/M01 A3027 RMK AO2 T01601009
KPVW 152155Z AUTO 02009G16KT 10SM CLR 16/M01 A3027 RMK AO2 T01611008
KPVW 152135Z AUTO 04014G17KT 10SM CLR 16/M01 A3026 RMK AO2 T01641007
KPVW 152115Z AUTO 36007G19KT 10SM CLR 16/M01 A3026 RMK AO2 T01621014
KPVW 152055Z AUTO 03011G18KT 10SM CLR 17/M01 A3026 RMK AO2 T01651012
KPVW 152035Z AUTO 02013G21KT 10SM CLR 17/M01 A3025 RMK AO2 T01681008
KPVW 152015Z AUTO 01011G20KT 10SM CLR 16/M01 A3025 RMK AO2 T01591006
KPVW 151955Z AUTO 03014G18KT 10SM CLR 16/M01 A3026 RMK AO2 T01571008
KPVW 151935Z AUTO 01015G20KT 10SM CLR 16/M01 A3026 RMK AO2 T01601010
KPVW 151915Z AUTO 01011G20KT 10SM CLR 16/M01 A3026 RMK AO2 T01551011
KPVW 151855Z AUTO 01014G19KT 10SM CLR 16/M01 A3026 RMK AO2 T01591009
KPVW 151835Z AUTO 03010G18KT 10SM CLR 15/M01 A3027 RMK AO2 T01511010
KPVW 151815Z AUTO 02012G16KT 10SM CLR 15/M01 A3027 RMK AO2 T01461009
KPVW 151755Z AUTO 02011G19KT 10SM CLR 15/M01 A3027 RMK AO2 T01451007 10145 20046
KPVW 151735Z AUTO 03012KT 10SM CLR 14/00 A3028 RMK AO2 T01361005
KPVW 151715Z AUTO 02010G17KT 10SM CLR 13/00 A3028 RMK AO2 T01340000
KPVW 151655Z AUTO 02013G21KT 10SM CLR 13/00 A3027 RMK AO2 T01251001
KPVW 151635Z AUTO 02015G20KT 10SM CLR 12/00 A3027 RMK AO2 T01210000
KPVW 151615Z AUTO 01017KT 10SM CLR 12/00 A3027 RMK AO2 T01170000
KPVW 151555Z AUTO 03013G18KT 10SM CLR 11/00 A3027 RMK AO2 T01100000
KPVW 151535Z AUTO 03014G22KT 10SM CLR 10/00 A3026 RMK AO2 T00981002
KPVW 151515Z AUTO 02016G22KT 10SM CLR 09/00 A3026 RMK AO2 T00901002
KPVW 151455Z AUTO 01017G24KT 10SM CLR 08/00 A3024 RMK AO2 T00791001
KPVW 151435Z AUTO 01016G21KT 10SM CLR 07/00 A3023 RMK AO2 T00710000
KPVW 151415Z AUTO 01018G23KT 10SM CLR 06/00 A3022 RMK AO2 T00610000
KPVW 151355Z AUTO 01012G16KT 10SM CLR 06/00 A3021 RMK AO2 T00550000 TSNO
KPVW 151335Z AUTO 01010G15KT 10SM CLR 05/01 A3020 RMK AO2 T00500005
KPVW 151315Z AUTO 36011G14KT 10SM CLR 05/01 A3018 RMK AO2 T00470007
KPVW 151255Z AUTO 01011G14KT 10SM CLR 05/01 A3017 RMK AO2 T00460010
KPVW 151235Z AUTO 36010KT 10SM CLR 05/01 A3016 RMK AO2 T00460012 TSNO
KPVW 151215Z AUTO 36011KT 10SM CLR 05/01 A3015 RMK AO2 T00500013 TSNO
KPVW 151155Z AUTO 36009KT 10SM CLR 05/02 A3013 RMK AO2 T00500016 10087 20050
KPVW 151135Z AUTO 01009KT 10SM CLR 05/02 A3012 RMK AO2 T00500016
KPVW 151115Z AUTO 36009KT 10SM CLR 05/02 A3011 RMK AO2 T00530018
KPVW 151055Z AUTO 35008KT 10SM CLR 06/02 A3009 RMK AO2 T00580021
KPVW 151035Z AUTO 36011G16KT 10SM CLR 06/02 A3007 RMK AO2 T00580023 TSNO
KPVW 151015Z AUTO 01009KT 10SM CLR 06/03 A3006 RMK AO2 T00590025
KPVW 150955Z AUTO 01010KT 10SM CLR 06/03 A3004 RMK AO2 T00630026
KPVW 150935Z AUTO 01011KT 10SM CLR 07/03 A3003 RMK AO2 T00660026
KPVW 150915Z AUTO 01013KT 10SM CLR 07/03 A3002 RMK AO2 T00700026
KPVW 150855Z AUTO 01011G16KT 10SM CLR 07/03 A3002 RMK AO2 T00720025
KPVW 150835Z AUTO 36011KT 10SM CLR 08/02 A3001 RMK AO2 T00800022
KPVW 150815Z AUTO 01010G15KT 10SM CLR 08/02 A2999 RMK AO2 T00770021
KPVW 150755Z AUTO 36007KT 10SM CLR 08/02 A2999 RMK AO2 T00750020 TSNO
KPVW 150735Z AUTO 36008KT 10SM CLR 08/02 A2999 RMK AO2 T00790020 TSNO
KPVW 150715Z AUTO 01007KT 10SM CLR 08/02 A2999 RMK AO2 T00790021 TSNO
KPVW 150655Z AUTO 36008KT 10SM CLR 08/02 A2998 RMK AO2 T00750020 TSNO